sensor_id;sensor_type;location;lat;lon;timestamp;P1;durP1;ratioP1;P2;durP2;ratioP2
9729;SDS011;4904;49.152;11.004;2022-09-12T00:01:14;4.32;;;3.88;;
9729;SDS011;4904;49.152;11.004;2022-09-12T00:03:43;4.80;;;4.50;;
9729;SDS011;4904;49.152;11.004;2022-09-12T00:06:11;4.68;;;4.38;;
9729;SDS011;4904;49.152;11.004;2022-09-12T00:08:44;3.50;;;3.20;;
9729;SDS011;4904;49.152;11.004;2022-09-12T00:11:11;4.20;;;3.90;;
9729;SDS011;4904;49.152;11.004;2022-09-12T00:13:39;4.00;;;3.70;;
9729;SDS011;4904;49.152;11.004;2022-09-12T00:16:12;3.67;;;3.38;;
9729;SDS011;4904;49.152;11.004;2022-09-12T00:18:41;2.83;;;2.63;;
9729;SDS011;4904;49.152;11.004;2022-09-12T00:21:10;3.10;;;2.80;;
9729;SDS011;4904;49.152;11.004;2022-09-12T00:23:37;5.93;;;2.80;;
9729;SDS011;4904;49.152;11.004;2022-09-12T00:26:05;3.08;;;2.70;;
9729;SDS011;4904;49.152;11.004;2022-09-12T00:28:33;2.78;;;2.58;;
9729;SDS011;4904;49.152;11.004;2022-09-12T00:31:02;4.32;;;3.25;;
9729;SDS011;4904;49.152;11.004;2022-09-12T00:33:31;4.40;;;4.10;;
9729;SDS011;4904;49.152;11.004;2022-09-12T00:35:58;5.40;;;4.90;;
9729;SDS011;4904;49.152;11.004;2022-09-12T00:38:25;4.40;;;4.10;;
9729;SDS011;4904;49.152;11.004;2022-09-12T00:40:52;17.90;;;5.35;;
9729;SDS011;4904;49.152;11.004;2022-09-12T00:43:33;6.13;;;5.57;;
9729;SDS011;4904;49.152;11.004;2022-09-12T00:46:04;24.08;;;5.63;;
9729;SDS011;4904;49.152;11.004;2022-09-12T00:48:38;14.65;;;5.63;;
9729;SDS011;4904;49.152;11.004;2022-09-12T00:51:09;5.75;;;5.25;;
9729;SDS011;4904;49.152;11.004;2022-09-12T00:53:37;5.60;;;5.18;;
9729;SDS011;4904;49.152;11.004;2022-09-12T00:56:05;4.90;;;4.60;;
9729;SDS011;4904;49.152;11.004;2022-09-12T00:58:36;5.28;;;4.88;;
9729;SDS011;4904;49.152;11.004;2022-09-12T01:01:09;5.85;;;5.45;;
9729;SDS011;4904;49.152;11.004;2022-09-12T01:03:36;5.90;;;5.40;;
9729;SDS011;4904;49.152;11.004;2022-09-12T01:06:04;5.25;;;4.85;;
9729;SDS011;4904;49.152;11.004;2022-09-12T01:08:37;5.30;;;4.90;;
9729;SDS011;4904;49.152;11.004;2022-09-12T01:11:05;5.57;;;5.07;;
9729;SDS011;4904;49.152;11.004;2022-09-12T01:13:33;5.63;;;5.13;;
9729;SDS011;4904;49.152;11.004;2022-09-12T01:16:02;6.90;;;5.45;;
9729;SDS011;4904;49.152;11.004;2022-09-12T01:18:31;6.20;;;5.70;;
9729;SDS011;4904;49.152;11.004;2022-09-12T01:21:12;6.22;;;5.72;;
9729;SDS011;4904;49.152;11.004;2022-09-12T01:23:49;5.45;;;5.05;;
9729;SDS011;4904;49.152;11.004;2022-09-12T01:29:38;8.48;;;5.18;;
9729;SDS011;4904;49.152;11.004;2022-09-12T01:32:27;5.50;;;4.68;;
9729;SDS011;4904;49.152;11.004;2022-09-12T01:35:00;4.63;;;4.22;;
9729;SDS011;4904;49.152;11.004;2022-09-12T01:37:34;4.60;;;4.20;;
9729;SDS011;4904;49.152;11.004;2022-09-12T01:40:09;4.25;;;3.95;;
9729;SDS011;4904;49.152;11.004;2022-09-12T01:42:49;5.18;;;4.20;;
9729;SDS011;4904;49.152;11.004;2022-09-12T01:45:23;4.82;;;4.43;;
9729;SDS011;4904;49.152;11.004;2022-09-12T01:47:57;4.43;;;4.10;;
9729;SDS011;4904;49.152;11.004;2022-09-12T01:50:29;4.65;;;4.35;;
9729;SDS011;4904;49.152;11.004;2022-09-12T01:52:59;4.88;;;4.47;;
9729;SDS011;4904;49.152;11.004;2022-09-12T01:55:30;4.78;;;4.38;;
9729;SDS011;4904;49.152;11.004;2022-09-12T01:58:02;7.65;;;4.78;;
9729;SDS011;4904;49.152;11.004;2022-09-12T02:00:31;5.68;;;5.28;;
9729;SDS011;4904;49.152;11.004;2022-09-12T02:03:03;6.60;;;6.00;;
9729;SDS011;4904;49.152;11.004;2022-09-12T02:05:35;6.85;;;6.10;;
9729;SDS011;4904;49.152;11.004;2022-09-12T02:08:07;7.82;;;7.03;;
9729;SDS011;4904;49.152;11.004;2022-09-12T02:10:39;6.72;;;6.18;;
9729;SDS011;4904;49.152;11.004;2022-09-12T02:13:10;6.10;;;5.60;;
9729;SDS011;4904;49.152;11.004;2022-09-12T02:15:42;6.25;;;5.75;;
9729;SDS011;4904;49.152;11.004;2022-09-12T02:18:16;7.18;;;6.43;;
9729;SDS011;4904;49.152;11.004;2022-09-12T02:20:45;8.50;;;5.70;;
9729;SDS011;4904;49.152;11.004;2022-09-12T02:23:14;6.80;;;6.20;;
9729;SDS011;4904;49.152;11.004;2022-09-12T02:25:45;7.85;;;7.07;;
9729;SDS011;4904;49.152;11.004;2022-09-12T02:28:16;11.00;;;10.00;;
9729;SDS011;4904;49.152;11.004;2022-09-12T02:30:48;9.00;;;8.02;;
9729;SDS011;4904;49.152;11.004;2022-09-12T02:33:23;10.18;;;6.28;;
9729;SDS011;4904;49.152;11.004;2022-09-12T02:35:53;8.68;;;6.22;;
9729;SDS011;4904;49.152;11.004;2022-09-12T02:38:24;6.78;;;5.55;;
9729;SDS011;4904;49.152;11.004;2022-09-12T02:40:55;6.10;;;5.60;;
9729;SDS011;4904;49.152;11.004;2022-09-12T02:43:22;6.25;;;5.75;;
9729;SDS011;4904;49.152;11.004;2022-09-12T02:45:49;5.97;;;5.38;;
9729;SDS011;4904;49.152;11.004;2022-09-12T02:48:17;6.25;;;5.60;;
9729;SDS011;4904;49.152;11.004;2022-09-12T02:50:48;5.93;;;5.43;;
9729;SDS011;4904;49.152;11.004;2022-09-12T02:53:16;8.20;;;5.53;;
9729;SDS011;4904;49.152;11.004;2022-09-12T02:55:43;5.88;;;4.60;;
9729;SDS011;4904;49.152;11.004;2022-09-12T02:58:12;5.13;;;4.68;;
9729;SDS011;4904;49.152;11.004;2022-09-12T03:00:43;10.25;;;4.28;;
9729;SDS011;4904;49.152;11.004;2022-09-12T03:03:20;4.45;;;3.90;;
9729;SDS011;4904;49.152;11.004;2022-09-12T03:06:06;3.38;;;3.13;;
9729;SDS011;4904;49.152;11.004;2022-09-12T03:08:48;3.83;;;3.25;;
9729;SDS011;4904;49.152;11.004;2022-09-12T03:11:28;3.25;;;3.05;;
9729;SDS011;4904;49.152;11.004;2022-09-12T03:14:08;6.05;;;3.63;;
9729;SDS011;4904;49.152;11.004;2022-09-12T03:16:43;7.03;;;4.03;;
9729;SDS011;4904;49.152;11.004;2022-09-12T03:19:21;5.00;;;4.60;;
9729;SDS011;4904;49.152;11.004;2022-09-12T03:21:53;5.07;;;4.15;;
9729;SDS011;4904;49.152;11.004;2022-09-12T03:24:32;5.97;;;4.45;;
9729;SDS011;4904;49.152;11.004;2022-09-12T03:27:04;5.70;;;4.50;;
9729;SDS011;4904;49.152;11.004;2022-09-12T03:29:35;4.82;;;4.03;;
9729;SDS011;4904;49.152;11.004;2022-09-12T03:32:04;6.65;;;4.43;;
9729;SDS011;4904;49.152;11.004;2022-09-12T03:34:31;5.97;;;5.30;;
9729;SDS011;4904;49.152;11.004;2022-09-12T03:36:59;5.63;;;4.90;;
9729;SDS011;4904;49.152;11.004;2022-09-12T03:39:26;5.70;;;4.63;;
9729;SDS011;4904;49.152;11.004;2022-09-12T03:41:54;6.15;;;5.65;;
9729;SDS011;4904;49.152;11.004;2022-09-12T03:44:21;6.50;;;5.90;;
9729;SDS011;4904;49.152;11.004;2022-09-12T03:46:49;11.50;;;6.15;;
9729;SDS011;4904;49.152;11.004;2022-09-12T03:49:16;8.40;;;5.88;;
9729;SDS011;4904;49.152;11.004;2022-09-12T03:51:43;8.32;;;6.53;;
9729;SDS011;4904;49.152;11.004;2022-09-12T03:54:11;6.80;;;5.72;;
9729;SDS011;4904;49.152;11.004;2022-09-12T03:56:38;7.30;;;5.70;;
9729;SDS011;4904;49.152;11.004;2022-09-12T03:59:05;6.47;;;5.68;;
9729;SDS011;4904;49.152;11.004;2022-09-12T04:01:32;6.28;;;5.63;;
9729;SDS011;4904;49.152;11.004;2022-09-12T04:03:59;7.28;;;6.20;;
9729;SDS011;4904;49.152;11.004;2022-09-12T04:06:27;5.80;;;5.30;;
9729;SDS011;4904;49.152;11.004;2022-09-12T04:08:55;5.78;;;5.25;;
9729;SDS011;4904;49.152;11.004;2022-09-12T04:11:24;6.00;;;5.32;;
9729;SDS011;4904;49.152;11.004;2022-09-12T04:13:51;5.68;;;5.07;;
9729;SDS011;4904;49.152;11.004;2022-09-12T04:16:18;6.18;;;5.55;;
9729;SDS011;4904;49.152;11.004;2022-09-12T04:18:45;8.25;;;5.13;;
9729;SDS011;4904;49.152;11.004;2022-09-12T04:21:12;16.33;;;5.82;;
9729;SDS011;4904;49.152;11.004;2022-09-12T04:23:41;10.60;;;5.70;;
9729;SDS011;4904;49.152;11.004;2022-09-12T04:26:09;9.80;;;5.35;;
9729;SDS011;4904;49.152;11.004;2022-09-12T04:28:39;19.70;;;6.50;;
9729;SDS011;4904;49.152;11.004;2022-09-12T04:31:07;15.20;;;6.30;;
9729;SDS011;4904;49.152;11.004;2022-09-12T04:33:36;10.13;;;5.72;;
9729;SDS011;4904;49.152;11.004;2022-09-12T04:36:03;12.95;;;5.47;;
9729;SDS011;4904;49.152;11.004;2022-09-12T04:38:31;6.53;;;4.85;;
9729;SDS011;4904;49.152;11.004;2022-09-12T04:40:59;11.45;;;5.28;;
9729;SDS011;4904;49.152;11.004;2022-09-12T04:43:26;5.75;;;5.15;;
9729;SDS011;4904;49.152;11.004;2022-09-12T04:45:54;7.38;;;5.28;;
9729;SDS011;4904;49.152;11.004;2022-09-12T04:48:21;5.93;;;5.32;;
9729;SDS011;4904;49.152;11.004;2022-09-12T04:50:47;17.58;;;5.47;;
9729;SDS011;4904;49.152;11.004;2022-09-12T04:53:14;6.97;;;5.38;;
9729;SDS011;4904;49.152;11.004;2022-09-12T04:55:41;5.40;;;4.90;;
9729;SDS011;4904;49.152;11.004;2022-09-12T04:58:08;7.30;;;4.85;;
9729;SDS011;4904;49.152;11.004;2022-09-12T05:00:35;6.45;;;5.10;;
9729;SDS011;4904;49.152;11.004;2022-09-12T05:03:03;13.32;;;5.70;;
9729;SDS011;4904;49.152;11.004;2022-09-12T05:05:30;6.40;;;5.75;;
9729;SDS011;4904;49.152;11.004;2022-09-12T05:07:57;6.28;;;4.72;;
9729;SDS011;4904;49.152;11.004;2022-09-12T05:10:24;5.70;;;5.10;;
9729;SDS011;4904;49.152;11.004;2022-09-12T05:12:52;11.10;;;5.43;;
9729;SDS011;4904;49.152;11.004;2022-09-12T05:15:19;18.98;;;6.10;;
9729;SDS011;4904;49.152;11.004;2022-09-12T05:17:46;6.85;;;5.72;;
9729;SDS011;4904;49.152;11.004;2022-09-12T05:20:14;7.63;;;5.88;;
9729;SDS011;4904;49.152;11.004;2022-09-12T05:22:42;5.90;;;5.43;;
9729;SDS011;4904;49.152;11.004;2022-09-12T05:25:09;7.47;;;5.43;;
9729;SDS011;4904;49.152;11.004;2022-09-12T05:27:35;6.65;;;5.28;;
9729;SDS011;4904;49.152;11.004;2022-09-12T05:30:03;6.45;;;5.10;;
9729;SDS011;4904;49.152;11.004;2022-09-12T05:32:31;7.07;;;5.28;;
9729;SDS011;4904;49.152;11.004;2022-09-12T05:34:58;16.80;;;6.13;;
9729;SDS011;4904;49.152;11.004;2022-09-12T05:37:26;25.52;;;5.95;;
9729;SDS011;4904;49.152;11.004;2022-09-12T05:39:54;22.05;;;5.55;;
9729;SDS011;4904;49.152;11.004;2022-09-12T05:42:21;9.48;;;5.97;;
9729;SDS011;4904;49.152;11.004;2022-09-12T05:44:48;9.60;;;5.45;;
9729;SDS011;4904;49.152;11.004;2022-09-12T05:47:15;11.20;;;5.82;;
9729;SDS011;4904;49.152;11.004;2022-09-12T05:49:43;6.28;;;5.70;;
9729;SDS011;4904;49.152;11.004;2022-09-12T05:52:12;7.22;;;5.78;;
9729;SDS011;4904;49.152;11.004;2022-09-12T05:54:40;7.78;;;6.15;;
9729;SDS011;4904;49.152;11.004;2022-09-12T05:57:07;6.35;;;5.75;;
9729;SDS011;4904;49.152;11.004;2022-09-12T05:59:34;7.00;;;6.40;;
9729;SDS011;4904;49.152;11.004;2022-09-12T06:02:01;11.45;;;6.25;;
9729;SDS011;4904;49.152;11.004;2022-09-12T06:04:28;6.80;;;6.20;;
9729;SDS011;4904;49.152;11.004;2022-09-12T06:06:55;6.32;;;5.82;;
9729;SDS011;4904;49.152;11.004;2022-09-12T06:09:22;6.35;;;5.82;;
9729;SDS011;4904;49.152;11.004;2022-09-12T06:11:51;6.63;;;5.95;;
9729;SDS011;4904;49.152;11.004;2022-09-12T06:14:18;5.72;;;5.13;;
9729;SDS011;4904;49.152;11.004;2022-09-12T06:16:46;5.80;;;5.30;;
9729;SDS011;4904;49.152;11.004;2022-09-12T06:19:14;12.15;;;6.00;;
9729;SDS011;4904;49.152;11.004;2022-09-12T06:21:42;8.43;;;5.43;;
9729;SDS011;4904;49.152;11.004;2022-09-12T06:24:10;7.28;;;5.63;;
9729;SDS011;4904;49.152;11.004;2022-09-12T06:26:37;6.50;;;5.82;;
9729;SDS011;4904;49.152;11.004;2022-09-12T06:29:05;6.63;;;6.10;;
9729;SDS011;4904;49.152;11.004;2022-09-12T06:31:33;8.50;;;5.78;;
9729;SDS011;4904;49.152;11.004;2022-09-12T06:34:02;7.55;;;5.82;;
9729;SDS011;4904;49.152;11.004;2022-09-12T06:36:31;11.02;;;6.05;;
9729;SDS011;4904;49.152;11.004;2022-09-12T06:39:01;7.00;;;6.35;;
9729;SDS011;4904;49.152;11.004;2022-09-12T06:41:29;6.82;;;6.22;;
9729;SDS011;4904;49.152;11.004;2022-09-12T06:43:57;8.68;;;6.05;;
9729;SDS011;4904;49.152;11.004;2022-09-12T06:46:26;7.53;;;6.40;;
9729;SDS011;4904;49.152;11.004;2022-09-12T06:48:55;8.40;;;6.50;;
9729;SDS011;4904;49.152;11.004;2022-09-12T06:51:23;7.95;;;7.10;;
9729;SDS011;4904;49.152;11.004;2022-09-12T06:53:50;7.40;;;6.55;;
9729;SDS011;4904;49.152;11.004;2022-09-12T06:56:21;9.50;;;6.93;;
9729;SDS011;4904;49.152;11.004;2022-09-12T06:58:50;8.77;;;7.00;;
9729;SDS011;4904;49.152;11.004;2022-09-12T07:01:18;8.35;;;7.10;;
9729;SDS011;4904;49.152;11.004;2022-09-12T07:03:50;7.65;;;6.95;;
9729;SDS011;4904;49.152;11.004;2022-09-12T07:06:18;7.50;;;6.72;;
9729;SDS011;4904;49.152;11.004;2022-09-12T07:08:48;10.68;;;7.28;;
9729;SDS011;4904;49.152;11.004;2022-09-12T07:11:16;8.55;;;6.97;;
9729;SDS011;4904;49.152;11.004;2022-09-12T07:13:46;7.25;;;6.65;;
9729;SDS011;4904;49.152;11.004;2022-09-12T07:16:14;8.00;;;7.20;;
9729;SDS011;4904;49.152;11.004;2022-09-12T07:18:42;8.02;;;7.22;;
9729;SDS011;4904;49.152;11.004;2022-09-12T07:21:12;9.85;;;8.95;;
9729;SDS011;4904;49.152;11.004;2022-09-12T07:23:40;9.82;;;8.93;;
9729;SDS011;4904;49.152;11.004;2022-09-12T07:26:08;9.18;;;8.30;;
9729;SDS011;4904;49.152;11.004;2022-09-12T07:28:39;11.07;;;10.02;;
9729;SDS011;4904;49.152;11.004;2022-09-12T07:31:07;11.43;;;9.98;;
9729;SDS011;4904;49.152;11.004;2022-09-12T07:33:35;11.10;;;10.07;;
9729;SDS011;4904;49.152;11.004;2022-09-12T07:36:03;10.98;;;9.95;;
9729;SDS011;4904;49.152;11.004;2022-09-12T07:38:34;10.88;;;9.80;;
9729;SDS011;4904;49.152;11.004;2022-09-12T07:41:01;10.48;;;9.57;;
9729;SDS011;4904;49.152;11.004;2022-09-12T07:43:35;10.02;;;9.00;;
9729;SDS011;4904;49.152;11.004;2022-09-12T07:46:02;10.23;;;9.32;;
9729;SDS011;4904;49.152;11.004;2022-09-12T07:48:29;10.80;;;9.70;;
9729;SDS011;4904;49.152;11.004;2022-09-12T07:50:57;9.75;;;8.75;;
9729;SDS011;4904;49.152;11.004;2022-09-12T07:53:24;11.73;;;9.98;;
9729;SDS011;4904;49.152;11.004;2022-09-12T07:55:53;11.18;;;9.93;;
9729;SDS011;4904;49.152;11.004;2022-09-12T07:58:21;11.32;;;10.07;;
9729;SDS011;4904;49.152;11.004;2022-09-12T08:00:48;10.05;;;8.90;;
9729;SDS011;4904;49.152;11.004;2022-09-12T08:03:16;10.90;;;9.85;;
9729;SDS011;4904;49.152;11.004;2022-09-12T08:05:43;10.13;;;9.13;;
9729;SDS011;4904;49.152;11.004;2022-09-12T08:08:10;10.40;;;9.32;;
9729;SDS011;4904;49.152;11.004;2022-09-12T08:10:37;11.20;;;10.10;;
9729;SDS011;4904;49.152;11.004;2022-09-12T08:13:05;11.07;;;9.77;;
9729;SDS011;4904;49.152;11.004;2022-09-12T08:15:33;11.57;;;9.73;;
9729;SDS011;4904;49.152;11.004;2022-09-12T08:18:00;9.65;;;8.80;;
9729;SDS011;4904;49.152;11.004;2022-09-12T08:20:27;9.38;;;8.52;;
9729;SDS011;4904;49.152;11.004;2022-09-12T08:22:55;9.48;;;8.68;;
9729;SDS011;4904;49.152;11.004;2022-09-12T08:25:21;9.25;;;8.35;;
9729;SDS011;4904;49.152;11.004;2022-09-12T08:27:50;8.57;;;7.88;;
9729;SDS011;4904;49.152;11.004;2022-09-12T08:30:18;10.13;;;9.13;;
9729;SDS011;4904;49.152;11.004;2022-09-12T08:32:45;9.73;;;8.93;;
9729;SDS011;4904;49.152;11.004;2022-09-12T08:35:12;9.20;;;8.40;;
9729;SDS011;4904;49.152;11.004;2022-09-12T08:37:39;9.05;;;8.15;;
9729;SDS011;4904;49.152;11.004;2022-09-12T08:40:08;9.45;;;8.55;;
9729;SDS011;4904;49.152;11.004;2022-09-12T08:42:46;8.32;;;7.53;;
9729;SDS011;4904;49.152;11.004;2022-09-12T08:45:21;9.48;;;8.57;;
9729;SDS011;4904;49.152;11.004;2022-09-12T08:47:52;9.05;;;8.25;;
9729;SDS011;4904;49.152;11.004;2022-09-12T08:50:21;7.57;;;6.97;;
9729;SDS011;4904;49.152;11.004;2022-09-12T08:52:50;8.05;;;7.35;;
9729;SDS011;4904;49.152;11.004;2022-09-12T08:55:24;8.93;;;7.65;;
9729;SDS011;4904;49.152;11.004;2022-09-12T08:57:55;7.10;;;6.50;;
9729;SDS011;4904;49.152;11.004;2022-09-12T09:00:23;7.35;;;6.65;;
9729;SDS011;4904;49.152;11.004;2022-09-12T09:03:04;6.60;;;5.80;;
9729;SDS011;4904;49.152;11.004;2022-09-12T09:05:56;6.32;;;5.80;;
9729;SDS011;4904;49.152;11.004;2022-09-12T09:08:44;7.78;;;6.78;;
9729;SDS011;4904;49.152;11.004;2022-09-12T09:11:25;6.63;;;6.03;;
9729;SDS011;4904;49.152;11.004;2022-09-12T09:14:11;6.97;;;6.38;;
9729;SDS011;4904;49.152;11.004;2022-09-12T09:17:06;6.15;;;5.70;;
9729;SDS011;4904;49.152;11.004;2022-09-12T09:19:37;5.97;;;5.32;;
9729;SDS011;4904;49.152;11.004;2022-09-12T09:22:12;6.65;;;6.15;;
9729;SDS011;4904;49.152;11.004;2022-09-12T09:24:47;6.40;;;5.85;;
9729;SDS011;4904;49.152;11.004;2022-09-12T09:27:20;7.00;;;6.40;;
9729;SDS011;4904;49.152;11.004;2022-09-12T09:29:53;6.05;;;5.55;;
9729;SDS011;4904;49.152;11.004;2022-09-12T09:32:24;5.45;;;5.00;;
9729;SDS011;4904;49.152;11.004;2022-09-12T09:34:52;8.30;;;6.07;;
9729;SDS011;4904;49.152;11.004;2022-09-12T09:37:20;6.72;;;5.90;;
9729;SDS011;4904;49.152;11.004;2022-09-12T09:39:55;5.70;;;5.15;;
9729;SDS011;4904;49.152;11.004;2022-09-12T09:42:29;5.97;;;5.47;;
9729;SDS011;4904;49.152;11.004;2022-09-12T09:45:10;5.53;;;5.05;;
9729;SDS011;4904;49.152;11.004;2022-09-12T09:47:42;5.03;;;4.63;;
9729;SDS011;4904;49.152;11.004;2022-09-12T09:50:12;5.70;;;5.13;;
9729;SDS011;4904;49.152;11.004;2022-09-12T09:52:41;5.18;;;4.70;;
9729;SDS011;4904;49.152;11.004;2022-09-12T09:55:11;4.93;;;4.43;;
9729;SDS011;4904;49.152;11.004;2022-09-12T09:57:42;4.85;;;4.45;;
9729;SDS011;4904;49.152;11.004;2022-09-12T10:00:24;4.80;;;4.32;;
9729;SDS011;4904;49.152;11.004;2022-09-12T10:03:05;5.78;;;4.78;;
9729;SDS011;4904;49.152;11.004;2022-09-12T10:05:50;5.75;;;4.65;;
9729;SDS011;4904;49.152;11.004;2022-09-12T10:08:19;5.30;;;4.80;;
9729;SDS011;4904;49.152;11.004;2022-09-12T10:10:58;5.40;;;4.90;;
9729;SDS011;4904;49.152;11.004;2022-09-12T10:13:29;5.07;;;4.68;;
9729;SDS011;4904;49.152;11.004;2022-09-12T10:16:16;4.30;;;3.90;;
9729;SDS011;4904;49.152;11.004;2022-09-12T10:18:47;5.72;;;4.10;;
9729;SDS011;4904;49.152;11.004;2022-09-12T10:21:20;4.40;;;4.05;;
9729;SDS011;4904;49.152;11.004;2022-09-12T10:23:56;4.50;;;4.20;;
9729;SDS011;4904;49.152;11.004;2022-09-12T10:26:37;4.47;;;4.18;;
9729;SDS011;4904;49.152;11.004;2022-09-12T10:29:09;5.13;;;4.60;;
9729;SDS011;4904;49.152;11.004;2022-09-12T10:31:45;4.70;;;4.30;;
9729;SDS011;4904;49.152;11.004;2022-09-12T10:34:20;4.80;;;4.40;;
9729;SDS011;4904;49.152;11.004;2022-09-12T10:36:53;4.60;;;4.28;;
9729;SDS011;4904;49.152;11.004;2022-09-12T10:39:24;4.43;;;4.13;;
9729;SDS011;4904;49.152;11.004;2022-09-12T10:41:51;4.00;;;3.70;;
9729;SDS011;4904;49.152;11.004;2022-09-12T10:44:22;4.40;;;4.00;;
9729;SDS011;4904;49.152;11.004;2022-09-12T10:46:51;4.20;;;3.80;;
9729;SDS011;4904;49.152;11.004;2022-09-12T10:49:19;4.10;;;3.80;;
9729;SDS011;4904;49.152;11.004;2022-09-12T10:51:49;4.45;;;4.13;;
9729;SDS011;4904;49.152;11.004;2022-09-12T10:54:18;4.43;;;4.10;;
9729;SDS011;4904;49.152;11.004;2022-09-12T10:59:54;4.32;;;3.92;;
9729;SDS011;4904;49.152;11.004;2022-09-12T11:02:34;4.95;;;4.50;;
9729;SDS011;4904;49.152;11.004;2022-09-12T11:05:19;4.32;;;4.00;;
9729;SDS011;4904;49.152;11.004;2022-09-12T11:08:02;4.40;;;4.00;;
9729;SDS011;4904;49.152;11.004;2022-09-12T11:10:39;4.30;;;4.00;;
9729;SDS011;4904;49.152;11.004;2022-09-12T11:13:16;4.03;;;3.72;;
9729;SDS011;4904;49.152;11.004;2022-09-12T11:15:54;4.18;;;3.83;;
9729;SDS011;4904;49.152;11.004;2022-09-12T11:18:35;4.43;;;3.85;;
9729;SDS011;4904;49.152;11.004;2022-09-12T11:21:27;4.10;;;3.80;;
9729;SDS011;4904;49.152;11.004;2022-09-12T11:24:07;3.72;;;3.40;;
9729;SDS011;4904;49.152;11.004;2022-09-12T11:26:52;3.72;;;3.50;;
9729;SDS011;4904;49.152;11.004;2022-09-12T11:29:33;4.03;;;3.63;;
9729;SDS011;4904;49.152;11.004;2022-09-12T11:32:18;4.07;;;3.75;;
9729;SDS011;4904;49.152;11.004;2022-09-12T11:35:15;4.85;;;3.60;;
9729;SDS011;4904;49.152;11.004;2022-09-12T11:37:58;4.10;;;3.70;;
9729;SDS011;4904;49.152;11.004;2022-09-12T11:40:44;3.72;;;3.42;;
9729;SDS011;4904;49.152;11.004;2022-09-12T11:43:22;3.70;;;3.40;;
9729;SDS011;4904;49.152;11.004;2022-09-12T11:45:55;4.13;;;3.72;;
9729;SDS011;4904;49.152;11.004;2022-09-12T11:48:31;3.60;;;3.30;;
9729;SDS011;4904;49.152;11.004;2022-09-12T11:51:04;3.65;;;3.35;;
9729;SDS011;4904;49.152;11.004;2022-09-12T11:53:41;3.97;;;3.65;;
9729;SDS011;4904;49.152;11.004;2022-09-12T11:56:10;4.68;;;3.35;;
9729;SDS011;4904;49.152;11.004;2022-09-12T11:58:42;4.00;;;3.70;;
9729;SDS011;4904;49.152;11.004;2022-09-12T12:01:14;3.80;;;3.60;;
9729;SDS011;4904;49.152;11.004;2022-09-12T12:03:46;3.92;;;3.63;;
9729;SDS011;4904;49.152;11.004;2022-09-12T12:06:15;4.38;;;3.45;;
9729;SDS011;4904;49.152;11.004;2022-09-12T12:08:45;3.47;;;3.05;;
9729;SDS011;4904;49.152;11.004;2022-09-12T12:11:15;3.85;;;3.55;;
9729;SDS011;4904;49.152;11.004;2022-09-12T12:13:51;3.80;;;3.50;;
9729;SDS011;4904;49.152;11.004;2022-09-12T12:16:23;4.03;;;3.63;;
9729;SDS011;4904;49.152;11.004;2022-09-12T12:18:53;3.72;;;3.42;;
9729;SDS011;4904;49.152;11.004;2022-09-12T12:21:33;4.03;;;3.58;;
9729;SDS011;4904;49.152;11.004;2022-09-12T12:24:18;3.90;;;3.53;;
9729;SDS011;4904;49.152;11.004;2022-09-12T12:26:57;3.70;;;3.40;;
9729;SDS011;4904;49.152;11.004;2022-09-12T12:29:35;4.00;;;3.50;;
9729;SDS011;4904;49.152;11.004;2022-09-12T12:32:23;4.03;;;3.50;;
9729;SDS011;4904;49.152;11.004;2022-09-12T12:34:50;3.63;;;3.28;;
9729;SDS011;4904;49.152;11.004;2022-09-12T12:37:53;3.90;;;3.58;;
9729;SDS011;4904;49.152;11.004;2022-09-12T12:40:24;3.60;;;3.40;;
9729;SDS011;4904;49.152;11.004;2022-09-12T12:42:57;3.50;;;3.20;;
9729;SDS011;4904;49.152;11.004;2022-09-12T12:48:28;5.07;;;3.00;;
9729;SDS011;4904;49.152;11.004;2022-09-12T12:54:24;3.58;;;3.35;;
9729;SDS011;4904;49.152;11.004;2022-09-12T12:57:00;5.70;;;3.20;;
9729;SDS011;4904;49.152;11.004;2022-09-12T12:59:46;3.53;;;3.33;;
9729;SDS011;4904;49.152;11.004;2022-09-12T13:02:19;3.13;;;2.92;;
9729;SDS011;4904;49.152;11.004;2022-09-12T13:04:50;3.45;;;2.90;;
9729;SDS011;4904;49.152;11.004;2022-09-12T13:07:24;3.72;;;3.42;;
9729;SDS011;4904;49.152;11.004;2022-09-12T13:10:03;4.10;;;3.80;;
9729;SDS011;4904;49.152;11.004;2022-09-12T13:12:33;3.25;;;2.95;;
9729;SDS011;4904;49.152;11.004;2022-09-12T13:15:03;3.45;;;3.13;;
9729;SDS011;4904;49.152;11.004;2022-09-12T13:17:52;3.55;;;3.35;;
9729;SDS011;4904;49.152;11.004;2022-09-12T13:20:27;3.33;;;3.03;;
9729;SDS011;4904;49.152;11.004;2022-09-12T13:22:57;4.18;;;3.28;;
9729;SDS011;4904;49.152;11.004;2022-09-12T13:25:30;4.60;;;4.20;;
9729;SDS011;4904;49.152;11.004;2022-09-12T13:28:02;4.70;;;4.03;;
9729;SDS011;4904;49.152;11.004;2022-09-12T13:30:32;3.30;;;3.00;;
9729;SDS011;4904;49.152;11.004;2022-09-12T13:33:08;3.22;;;3.00;;
9729;SDS011;4904;49.152;11.004;2022-09-12T13:35:45;3.53;;;3.00;;
9729;SDS011;4904;49.152;11.004;2022-09-12T13:38:36;4.05;;;3.30;;
9729;SDS011;4904;49.152;11.004;2022-09-12T13:41:16;3.40;;;3.10;;
9729;SDS011;4904;49.152;11.004;2022-09-12T13:43:49;3.25;;;3.05;;
9729;SDS011;4904;49.152;11.004;2022-09-12T13:46:17;3.47;;;3.17;;
9729;SDS011;4904;49.152;11.004;2022-09-12T13:48:50;3.55;;;2.95;;
9729;SDS011;4904;49.152;11.004;2022-09-12T13:51:20;3.55;;;3.08;;
9729;SDS011;4904;49.152;11.004;2022-09-12T13:53:49;3.50;;;3.20;;
9729;SDS011;4904;49.152;11.004;2022-09-12T13:56:21;4.05;;;3.20;;
9729;SDS011;4904;49.152;11.004;2022-09-12T13:58:52;3.42;;;3.13;;
9729;SDS011;4904;49.152;11.004;2022-09-12T14:01:21;3.75;;;2.85;;
9729;SDS011;4904;49.152;11.004;2022-09-12T14:03:49;3.53;;;3.10;;
9729;SDS011;4904;49.152;11.004;2022-09-12T14:06:35;3.33;;;3.03;;
9729;SDS011;4904;49.152;11.004;2022-09-12T14:09:13;4.00;;;3.60;;
9729;SDS011;4904;49.152;11.004;2022-09-12T14:11:44;4.00;;;2.85;;
9729;SDS011;4904;49.152;11.004;2022-09-12T14:14:16;5.20;;;3.35;;
9729;SDS011;4904;49.152;11.004;2022-09-12T14:16:47;3.38;;;3.08;;
9729;SDS011;4904;49.152;11.004;2022-09-12T14:19:18;3.30;;;3.00;;
9729;SDS011;4904;49.152;11.004;2022-09-12T14:21:50;3.50;;;3.20;;
9729;SDS011;4904;49.152;11.004;2022-09-12T14:24:18;3.67;;;3.38;;
9729;SDS011;4904;49.152;11.004;2022-09-12T14:26:50;3.00;;;2.80;;
9729;SDS011;4904;49.152;11.004;2022-09-12T14:29:19;3.08;;;2.88;;
9729;SDS011;4904;49.152;11.004;2022-09-12T14:32:01;5.00;;;3.13;;
9729;SDS011;4904;49.152;11.004;2022-09-12T14:34:29;3.08;;;2.88;;
9729;SDS011;4904;49.152;11.004;2022-09-12T14:36:56;3.33;;;3.08;;
9729;SDS011;4904;49.152;11.004;2022-09-12T14:39:26;3.28;;;2.63;;
9729;SDS011;4904;49.152;11.004;2022-09-12T14:42:02;3.20;;;3.00;;
9729;SDS011;4904;49.152;11.004;2022-09-12T14:44:32;3.25;;;2.95;;
9729;SDS011;4904;49.152;11.004;2022-09-12T14:47:09;3.08;;;2.70;;
9729;SDS011;4904;49.152;11.004;2022-09-12T14:49:39;3.17;;;2.97;;
9729;SDS011;4904;49.152;11.004;2022-09-12T14:52:07;3.38;;;3.00;;
9729;SDS011;4904;49.152;11.004;2022-09-12T14:54:56;3.17;;;2.97;;
9729;SDS011;4904;49.152;11.004;2022-09-12T14:57:36;3.20;;;3.00;;
9729;SDS011;4904;49.152;11.004;2022-09-12T15:00:10;3.13;;;2.90;;
9729;SDS011;4904;49.152;11.004;2022-09-12T15:02:45;2.88;;;2.67;;
9729;SDS011;4904;49.152;11.004;2022-09-12T15:05:14;3.67;;;2.83;;
9729;SDS011;4904;49.152;11.004;2022-09-12T15:07:50;3.50;;;2.95;;
9729;SDS011;4904;49.152;11.004;2022-09-12T15:10:33;3.63;;;3.35;;
9729;SDS011;4904;49.152;11.004;2022-09-12T15:13:04;3.25;;;3.05;;
9729;SDS011;4904;49.152;11.004;2022-09-12T15:15:40;3.17;;;2.97;;
9729;SDS011;4904;49.152;11.004;2022-09-12T15:18:08;3.20;;;2.90;;
9729;SDS011;4904;49.152;11.004;2022-09-12T15:20:36;3.30;;;3.08;;
9729;SDS011;4904;49.152;11.004;2022-09-12T15:23:05;3.10;;;2.90;;
9729;SDS011;4904;49.152;11.004;2022-09-12T15:25:37;3.30;;;3.00;;
9729;SDS011;4904;49.152;11.004;2022-09-12T15:28:07;3.55;;;3.25;;
9729;SDS011;4904;49.152;11.004;2022-09-12T15:30:41;3.67;;;3.38;;
9729;SDS011;4904;49.152;11.004;2022-09-12T15:33:09;4.45;;;2.88;;
9729;SDS011;4904;49.152;11.004;2022-09-12T15:35:36;3.28;;;2.97;;
9729;SDS011;4904;49.152;11.004;2022-09-12T15:38:03;4.55;;;3.15;;
9729;SDS011;4904;49.152;11.004;2022-09-12T15:40:30;2.95;;;2.70;;